Time;durP1;ratioP1;P1;durP2;ratioP2;P2;SDS_P1;SDS_P2;PMS_P1;PMS_P2;Temp;Humidity;BMP_temperature;BMP_pressure;BME280_temperature;BME280_humidity;BME280_pressure;Samples;Min_cycle;Max_cycle;Signal;HPM_P1;HPM_P2
2021/11/18 00:02:15;;;;;;;;;;;8.40;69.90;;;;;;5106230;27;83249;-55
2021/11/18 00:04:41;;;;;;;;;;;8.40;69.70;;;;;;5107823;27;82110;-58
2021/11/18 00:07:06;;;;;;;;;;;8.40;69.80;;;;;;5108322;27;83049;-56
2021/11/18 00:09:32;;;;;;;;;;;8.40;69.80;;;;;;5106466;27;83845;-56
2021/11/18 00:11:58;;;;;;;;;;;8.50;69.60;;;;;;5109028;27;82907;-56
2021/11/18 00:14:24;;;;;;;;;;;8.40;69.60;;;;;;5103897;27;82698;-57
2021/11/18 00:16:50;;;;;;;;;;;8.40;69.50;;;;;;5103812;27;82115;-57
2021/11/18 00:19:15;;;;;;;;;;;8.40;69.50;;;;;;5104880;27;83744;-56
2021/11/18 00:21:42;;;;;;;;;;;8.40;69.40;;;;;;5105355;27;84177;-58
2021/11/18 00:24:09;;;;;;;;;;;8.40;69.30;;;;;;5105358;27;82076;-56
2021/11/18 00:26:36;;;;;;;;;;;8.40;69.50;;;;;;5104723;27;82783;-56
2021/11/18 00:29:01;;;;;;;;;;;8.40;69.40;;;;;;5103218;27;84762;-58
2021/11/18 00:31:29;;;;;;;;;;;8.40;70.10;;;;;;5105396;27;83779;-57
2021/11/18 00:33:55;;;;;;;;;;;8.40;69.40;;;;;;5109137;27;82370;-58
2021/11/18 00:36:20;;;;;;;;;;;8.30;69.50;;;;;;5104791;27;82072;-58
2021/11/18 00:38:46;;;;;;;;;;;8.40;69.50;;;;;;5104370;27;82969;-57
2021/11/18 00:41:13;;;;;;;;;;;8.40;69.50;;;;;;5103804;27;84376;-57
2021/11/18 00:43:39;;;;;;;;;;;8.30;69.50;;;;;;5103178;27;82080;-57
2021/11/18 00:46:05;;;;;;;;;;;8.30;69.50;;;;;;5103137;27;83009;-57
2021/11/18 00:48:30;;;;;;;;;;;8.30;69.60;;;;;;5105192;27;83346;-58
2021/11/18 00:50:57;;;;;;;;;;;8.30;69.50;;;;;;5106493;27;82142;-55
2021/11/18 00:53:23;;;;;;;;;;;8.20;69.50;;;;;;5105546;27;82492;-57
2021/11/18 00:55:49;;;;;;;;;;;8.30;69.40;;;;;;5108812;27;83111;-56
2021/11/18 00:58:15;;;;;;;;;;;8.20;69.50;;;;;;5104829;27;83260;-57
2021/11/18 01:00:42;;;;;;;;;;;8.30;69.50;;;;;;5104729;27;82775;-56
2021/11/18 01:03:09;;;;;;;;;;;8.20;69.50;;;;;;5105319;27;81339;-56
2021/11/18 01:05:36;;;;;;;;;;;8.20;69.50;;;;;;5104202;27;82097;-56
2021/11/18 01:08:03;;;;;;;;;;;8.20;69.50;;;;;;5102677;27;85036;-57
2021/11/18 01:10:32;;;;;;;;;;;8.20;69.50;;;;;;5103940;27;83167;-56
2021/11/18 01:12:58;;;;;;;;;;;8.20;69.40;;;;;;5105464;27;84857;-57
2021/11/18 01:15:25;;;;;;;;;;;8.20;69.50;;;;;;5105901;27;83494;-58
2021/11/18 01:17:51;;;;;;;;;;;8.20;69.50;;;;;;5106105;27;82104;-57
2021/11/18 01:20:18;;;;;;;;;;;8.20;69.50;;;;;;5104179;27;83066;-57
2021/11/18 01:22:44;;;;;;;;;;;8.10;69.50;;;;;;5103844;27;82138;-56
2021/11/18 01:25:10;;;;;;;;;;;8.10;69.40;;;;;;5102896;27;82140;-56
2021/11/18 01:27:36;;;;;;;;;;;8.10;69.50;;;;;;5103395;27;83745;-56
2021/11/18 01:30:05;;;;;;;;;;;8.10;69.60;;;;;;5103373;27;83667;-55
2021/11/18 01:32:31;;;;;;;;;;;8.10;69.70;;;;;;5104431;27;82621;-58
2021/11/18 01:34:56;;;;;;;;;;;8.10;69.60;;;;;;5104087;27;85103;-56
2021/11/18 01:37:22;;;;;;;;;;;8.10;69.60;;;;;;5105143;27;82121;-57
2021/11/18 01:39:47;;;;;;;;;;;8.00;69.50;;;;;;5108873;27;82224;-57
2021/11/18 01:42:13;;;;;;;;;;;8.00;69.60;;;;;;5106353;27;82080;-58
2021/11/18 01:44:41;;;;;;;;;;;8.10;69.60;;;;;;5105660;27;84541;-56
2021/11/18 01:47:10;;;;;;;;;;;8.00;69.60;;;;;;5105500;27;84117;-57
2021/11/18 01:49:36;;;;;;;;;;;8.00;69.60;;;;;;5106532;27;84046;-57
2021/11/18 01:52:03;;;;;;;;;;;8.00;69.60;;;;;;5107273;27;83758;-58
2021/11/18 01:54:31;;;;;;;;;;;8.00;69.60;;;;;;5104312;27;84955;-58
2021/11/18 01:56:56;;;;;;;;;;;8.00;69.50;;;;;;5101705;27;82105;-57
2021/11/18 01:59:27;;;;;;;;;;;8.00;69.50;;;;;;5104699;27;83127;-56
2021/11/18 02:01:54;;;;;;;;;;;7.90;69.60;;;;;;5101843;27;82074;-56
2021/11/18 02:04:20;;;;;;;;;;;7.90;69.60;;;;;;5106051;27;84424;-56
2021/11/18 02:06:48;;;;;;;;;;;7.90;69.60;;;;;;5105122;27;83019;-56
2021/11/18 02:09:19;;;;;;;;;;;7.90;69.60;;;;;;5103644;27;82099;-57
2021/11/18 02:11:49;;;;;;;;;;;7.90;69.60;;;;;;5104911;27;83971;-56
2021/11/18 02:14:16;;;;;;;;;;;7.90;70.20;;;;;;5105705;27;83255;-58
2021/11/18 02:16:42;;;;;;;;;;;7.90;69.60;;;;;;5106518;27;81456;-59
2021/11/18 02:19:08;;;;;;;;;;;7.90;69.60;;;;;;5105965;27;82145;-57
2021/11/18 02:21:35;;;;;;;;;;;7.90;69.50;;;;;;5107675;27;83172;-56
2021/11/18 02:24:02;;;;;;;;;;;7.80;69.60;;;;;;5104779;27;83089;-57
2021/11/18 02:26:28;;;;;;;;;;;7.80;69.70;;;;;;5103514;27;84582;-57
2021/11/18 02:28:55;;;;;;;;;;;7.80;69.80;;;;;;5104585;27;82106;-56
2021/11/18 02:31:23;;;;;;;;;;;7.80;69.80;;;;;;5102689;27;84286;-55
2021/11/18 02:33:49;;;;;;;;;;;7.70;69.80;;;;;;5105349;27;82124;-58
2021/11/18 02:36:15;;;;;;;;;;;7.70;69.80;;;;;;5106032;27;82093;-59
2021/11/18 02:38:41;;;;;;;;;;;7.70;69.90;;;;;;5104575;27;82813;-56
2021/11/18 02:41:09;;;;;;;;;;;7.70;69.80;;;;;;5104385;27;82799;-56
2021/11/18 02:43:34;;;;;;;;;;;7.70;69.80;;;;;;5108216;27;82090;-55
2021/11/18 02:46:00;;;;;;;;;;;7.80;69.70;;;;;;5104692;27;82774;-56
2021/11/18 02:48:26;;;;;;;;;;;7.70;69.80;;;;;;5103237;27;83028;-58
2021/11/18 02:50:57;;;;;;;;;;;7.70;69.90;;;;;;5102962;27;83492;-56
2021/11/18 02:53:23;;;;;;;;;;;7.70;69.80;;;;;;5100577;27;83837;-56
2021/11/18 02:55:50;;;;;;;;;;;7.70;69.80;;;;;;5105880;27;82164;-57
2021/11/18 02:58:17;;;;;;;;;;;7.60;69.90;;;;;;5103070;27;82967;-57
2021/11/18 03:00:45;;;;;;;;;;;7.60;69.80;;;;;;5102753;27;82800;-58
2021/11/18 03:03:11;;;;;;;;;;;7.70;69.80;;;;;;5101310;27;83143;-56
2021/11/18 03:05:37;;;;;;;;;;;7.70;69.80;;;;;;5103996;27;82882;-57
2021/11/18 03:08:02;;;;;;;;;;;7.60;69.90;;;;;;5101462;27;83845;-57
2021/11/18 03:10:28;;;;;;;;;;;7.60;69.80;;;;;;5102007;27;83655;-57
2021/11/18 03:12:55;;;;;;;;;;;7.70;69.80;;;;;;5099651;27;84260;-55
2021/11/18 03:15:21;;;;;;;;;;;7.70;69.80;;;;;;5101111;27;82069;-54
2021/11/18 03:17:47;;;;;;;;;;;7.60;69.80;;;;;;5100507;27;83099;-57
2021/11/18 03:20:14;;;;;;;;;;;7.60;69.80;;;;;;5103129;27;84222;-56
2021/11/18 03:22:40;;;;;;;;;;;7.60;69.80;;;;;;5105310;27;82100;-56
2021/11/18 03:25:06;;;;;;;;;;;7.60;69.80;;;;;;5105328;27;83929;-57
2021/11/18 03:27:32;;;;;;;;;;;7.60;70.00;;;;;;5106932;27;83653;-55
2021/11/18 03:29:57;;;;;;;;;;;7.50;70.00;;;;;;5104321;27;82991;-55
2021/11/18 03:32:23;;;;;;;;;;;7.50;69.90;;;;;;5101334;27;82175;-54
2021/11/18 03:34:48;;;;;;;;;;;7.50;69.80;;;;;;5101213;27;82153;-56
2021/11/18 03:37:14;;;;;;;;;;;7.50;69.80;;;;;;5100259;27;83033;-54
2021/11/18 03:39:40;;;;;;;;;;;7.50;70.00;;;;;;5100779;27;82147;-56
2021/11/18 03:42:07;;;;;;;;;;;7.50;70.10;;;;;;5102059;27;82100;-55
2021/11/18 03:44:33;;;;;;;;;;;7.50;70.10;;;;;;5100350;27;82859;-55
2021/11/18 03:47:01;;;;;;;;;;;7.50;70.00;;;;;;5105032;27;83058;-57
2021/11/18 03:49:27;;;;;;;;;;;7.50;69.80;;;;;;5104526;27;82135;-53
2021/11/18 03:51:54;;;;;;;;;;;7.50;69.90;;;;;;5100972;27;83614;-55
2021/11/18 03:54:21;;;;;;;;;;;7.50;69.90;;;;;;5100428;27;82481;-56
2021/11/18 03:56:46;;;;;;;;;;;7.50;69.90;;;;;;5104565;27;82369;-57
2021/11/18 03:59:14;;;;;;;;;;;7.50;69.90;;;;;;5100792;27;84008;-55
2021/11/18 04:01:41;;;;;;;;;;;7.50;69.80;;;;;;5104027;27;83016;-58
2021/11/18 04:04:07;;;;;;;;;;;7.40;69.80;;;;;;5103592;27;82840;-55
2021/11/18 04:06:33;;;;;;;;;;;7.50;69.80;;;;;;5102930;27;83118;-55
2021/11/18 04:08:59;;;;;;;;;;;7.40;69.90;;;;;;5106084;27;82113;-56
2021/11/18 04:11:26;;;;;;;;;;;7.40;69.80;;;;;;5103195;27;83070;-56
2021/11/18 04:13:51;;;;;;;;;;;7.40;69.80;;;;;;5102414;27;82095;-56
2021/11/18 04:16:17;;;;;;;;;;;7.40;69.80;;;;;;5102768;27;83039;-55
2021/11/18 04:18:42;;;;;;;;;;;7.40;69.80;;;;;;5104144;27;83848;-55
2021/11/18 04:21:09;;;;;;;;;;;7.40;69.90;;;;;;5105896;27;82108;-56
2021/11/18 04:23:35;;;;;;;;;;;7.40;69.90;;;;;;5106846;27;83945;-56
2021/11/18 04:26:02;;;;;;;;;;;7.40;70.00;;;;;;5106870;27;85687;-57
2021/11/18 04:28:28;;;;;;;;;;;7.40;70.00;;;;;;5106515;27;82108;-58
2021/11/18 04:30:58;;;;;;;;;;;7.40;70.00;;;;;;5109274;27;82420;-56
2021/11/18 04:33:24;;;;;;;;;;;7.30;70.10;;;;;;5106846;27;82070;-56
2021/11/18 04:35:50;;;;;;;;;;;7.30;70.00;;;;;;5107174;27;82565;-58
2021/11/18 04:38:15;;;;;;;;;;;7.30;70.00;;;;;;5107825;27;84239;-56
2021/11/18 04:40:41;;;;;;;;;;;7.30;70.10;;;;;;5105521;27;83555;-56
2021/11/18 04:43:06;;;;;;;;;;;7.30;70.10;;;;;;5105454;27;83406;-54
2021/11/18 04:45:33;;;;;;;;;;;7.30;70.20;;;;;;5104065;27;82960;-55
2021/11/18 04:47:58;;;;;;;;;;;7.20;70.00;;;;;;5104289;27;83180;-56
2021/11/18 04:50:24;;;;;;;;;;;7.20;70.20;;;;;;5103387;27;83816;-56
2021/11/18 04:52:50;;;;;;;;;;;7.20;70.20;;;;;;5105739;27;83184;-56
2021/11/18 04:55:19;;;;;;;;;;;7.20;70.20;;;;;;5104011;27;82077;-55
2021/11/18 04:57:45;;;;;;;;;;;7.30;70.00;;;;;;5105786;27;84708;-55
2021/11/18 05:00:13;;;;;;;;;;;7.30;70.10;;;;;;5106744;27;82097;-54
2021/11/18 05:02:39;;;;;;;;;;;7.20;70.30;;;;;;5104143;27;82272;-54
2021/11/18 05:05:05;;;;;;;;;;;7.20;70.20;;;;;;5103617;27;83675;-55
2021/11/18 05:07:31;;;;;;;;;;;7.20;70.20;;;;;;5103096;27;81839;-54
2021/11/18 05:09:56;;;;;;;;;;;7.10;70.40;;;;;;5103737;27;82133;-55
2021/11/18 05:12:22;;;;;;;;;;;7.10;70.40;;;;;;5103559;27;83644;-55
2021/11/18 05:14:47;;;;;;;;;;;7.20;70.30;;;;;;5106785;27;83114;-55
2021/11/18 05:17:13;;;;;;;;;;;7.10;70.40;;;;;;5105770;27;83078;-55
2021/11/18 05:19:38;;;;;;;;;;;7.10;70.50;;;;;;5106598;27;82137;-54
2021/11/18 05:22:04;;;;;;;;;;;7.00;70.60;;;;;;5106966;27;82653;-54
2021/11/18 05:24:30;;;;;;;;;;;7.00;70.70;;;;;;5106114;27;83163;-55
2021/11/18 05:26:55;;;;;;;;;;;7.00;70.70;;;;;;5103870;27;82955;-52
2021/11/18 05:29:21;;;;;;;;;;;7.00;70.70;;;;;;5103137;27;82089;-55
2021/11/18 05:31:47;;;;;;;;;;;7.10;70.50;;;;;;5104281;27;83978;-55
2021/11/18 05:34:12;;;;;;;;;;;7.00;70.60;;;;;;5104039;27;82144;-54
2021/11/18 05:36:38;;;;;;;;;;;6.90;71.00;;;;;;5107170;27;82132;-54
2021/11/18 05:39:04;;;;;;;;;;;6.90;70.80;;;;;;5103212;27;83021;-53
2021/11/18 05:41:31;;;;;;;;;;;7.00;70.80;;;;;;5101927;27;84725;-54
2021/11/18 05:44:02;;;;;;;;;;;7.00;70.80;;;;;;5106628;27;84679;-57
2021/11/18 05:46:28;;;;;;;;;;;6.90;71.00;;;;;;5104879;27;82276;-55
2021/11/18 05:48:53;;;;;;;;;;;6.90;71.10;;;;;;5106204;27;82839;-56
2021/11/18 05:51:19;;;;;;;;;;;6.90;70.80;;;;;;5107077;27;82172;-55
2021/11/18 05:53:45;;;;;;;;;;;6.80;71.20;;;;;;5103551;27;83610;-55
2021/11/18 05:56:12;;;;;;;;;;;6.80;71.20;;;;;;5107200;27;82941;-55
2021/11/18 05:58:39;;;;;;;;;;;6.80;71.10;;;;;;5104006;27;82108;-55
2021/11/18 06:01:06;;;;;;;;;;;6.80;71.20;;;;;;5106361;27;83649;-55
2021/11/18 06:03:31;;;;;;;;;;;6.80;71.50;;;;;;5104357;27;84525;-57
2021/11/18 06:05:57;;;;;;;;;;;6.80;71.20;;;;;;5106270;27;82093;-58
2021/11/18 06:08:23;;;;;;;;;;;6.80;71.20;;;;;;5104933;27;83857;-55
2021/11/18 06:10:50;;;;;;;;;;;6.80;71.10;;;;;;5101516;27;85158;-55
2021/11/18 06:13:16;;;;;;;;;;;6.70;71.50;;;;;;5103943;27;83405;-55
2021/11/18 06:15:41;;;;;;;;;;;6.70;71.40;;;;;;5102572;27;83573;-54
2021/11/18 06:18:07;;;;;;;;;;;6.80;71.20;;;;;;5105911;27;83210;-54
2021/11/18 06:20:32;;;;;;;;;;;6.80;70.90;;;;;;5106752;27;82518;-57
2021/11/18 06:22:58;;;;;;;;;;;6.80;71.10;;;;;;5106435;27;83553;-57
2021/11/18 06:25:25;;;;;;;;;;;6.70;71.40;;;;;;5104597;27;82739;-54
2021/11/18 06:27:51;;;;;;;;;;;6.70;71.30;;;;;;5104604;27;83028;-55
2021/11/18 06:30:21;;;;;;;;;;;6.70;71.30;;;;;;5105351;27;82228;-55
2021/11/18 06:32:47;;;;;;;;;;;6.70;71.40;;;;;;5105961;27;82060;-55
2021/11/18 06:35:14;;;;;;;;;;;6.70;71.60;;;;;;5105637;27;82899;-56
2021/11/18 06:37:40;;;;;;;;;;;6.70;71.70;;;;;;5105756;27;83690;-55
2021/11/18 06:40:06;;;;;;;;;;;6.60;71.50;;;;;;5108741;27;82059;-57
2021/11/18 06:42:32;;;;;;;;;;;6.60;71.70;;;;;;5105794;27;84312;-52
2021/11/18 06:44:57;;;;;;;;;;;6.60;71.80;;;;;;5104437;27;82204;-55
2021/11/18 06:47:23;;;;;;;;;;;6.60;71.70;;;;;;5106476;27;82123;-56
2021/11/18 06:49:48;;;;;;;;;;;6.60;71.60;;;;;;5104666;27;84535;-56
2021/11/18 06:52:16;;;;;;;;;;;6.60;71.70;;;;;;5103360;27;84627;-54
2021/11/18 06:54:42;;;;;;;;;;;6.60;71.70;;;;;;5103929;27;85477;-55
2021/11/18 06:57:08;;;;;;;;;;;6.60;72.30;;;;;;5104012;27;84598;-53
2021/11/18 06:59:33;;;;;;;;;;;6.60;71.80;;;;;;5105225;27;82114;-56
2021/11/18 07:01:59;;;;;;;;;;;6.60;71.80;;;;;;5107215;27;83537;-54
2021/11/18 07:04:25;;;;;;;;;;;6.60;71.80;;;;;;5100890;27;83870;-54
2021/11/18 07:06:50;;;;;;;;;;;6.60;71.90;;;;;;5101591;27;82816;-54
2021/11/18 07:09:16;;;;;;;;;;;6.60;72.00;;;;;;5103138;27;82360;-54
2021/11/18 07:11:41;;;;;;;;;;;6.60;71.90;;;;;;5103958;27;82132;-52
2021/11/18 07:14:07;;;;;;;;;;;6.60;71.90;;;;;;5104804;27;83456;-56
2021/11/18 07:16:32;;;;;;;;;;;6.60;71.90;;;;;;5103900;27;84477;-57
2021/11/18 07:18:59;;;;;;;;;;;6.50;72.00;;;;;;5104672;27;83796;-55
2021/11/18 07:21:24;;;;;;;;;;;6.60;71.90;;;;;;5103644;27;83918;-54
2021/11/18 07:23:51;;;;;;;;;;;6.50;71.70;;;;;;5103383;27;84422;-55
2021/11/18 07:26:16;;;;;;;;;;;6.50;72.00;;;;;;5104800;27;82648;-54
2021/11/18 07:28:42;;;;;;;;;;;6.50;71.80;;;;;;5104129;27;82579;-55
2021/11/18 07:31:09;;;;;;;;;;;6.60;72.00;;;;;;5105205;27;82135;-53
2021/11/18 07:33:35;;;;;;;;;;;6.50;71.90;;;;;;5104768;27;83240;-55
2021/11/18 07:36:01;;;;;;;;;;;6.50;72.00;;;;;;5104966;27;84471;-55
2021/11/18 07:38:27;;;;;;;;;;;6.50;72.00;;;;;;5102898;27;83737;-54
2021/11/18 07:40:53;;;;;;;;;;;6.50;72.00;;;;;;5104333;27;83155;-54
2021/11/18 07:43:22;;;;;;;;;;;6.50;72.00;;;;;;5104824;27;82090;-53
2021/11/18 07:45:48;;;;;;;;;;;6.50;71.90;;;;;;5103457;27;82119;-54
2021/11/18 07:48:14;;;;;;;;;;;6.50;71.90;;;;;;5101110;27;82752;-54
2021/11/18 07:50:40;;;;;;;;;;;6.50;72.10;;;;;;5102074;27;82128;-54
2021/11/18 07:53:05;;;;;;;;;;;6.50;72.10;;;;;;5103069;27;82086;-54
2021/11/18 07:55:31;;;;;;;;;;;6.50;72.10;;;;;;5104124;27;82207;-55
2021/11/18 07:57:56;;;;;;;;;;;6.50;72.10;;;;;;5108021;27;81342;-54
2021/11/18 08:00:24;;;;;;;;;;;6.50;72.20;;;;;;5108663;27;82977;-51
2021/11/18 08:02:49;;;;;;;;;;;6.50;72.20;;;;;;5107763;27;83141;-50
2021/11/18 08:05:15;;;;;;;;;;;6.40;72.20;;;;;;5109971;27;84556;-52
2021/11/18 08:07:41;;;;;;;;;;;6.40;72.20;;;;;;5108200;27;83008;-53
2021/11/18 08:10:07;;;;;;;;;;;6.40;72.20;;;;;;5106586;27;83762;-52
2021/11/18 08:12:35;;;;;;;;;;;6.40;72.10;;;;;;5106372;27;83777;-55
2021/11/18 08:15:01;;;;;;;;;;;6.40;72.20;;;;;;5105490;27;87193;-55
2021/11/18 08:17:27;;;;;;;;;;;6.40;72.20;;;;;;5106302;27;82079;-54
2021/11/18 08:19:52;;;;;;;;;;;6.40;72.30;;;;;;5107629;27;82323;-54
2021/11/18 08:22:18;;;;;;;;;;;6.40;72.40;;;;;;5108151;27;83077;-55
2021/11/18 08:24:43;;;;;;;;;;;6.40;72.30;;;;;;5104428;27;83033;-54
2021/11/18 08:27:09;;;;;;;;;;;6.40;72.30;;;;;;5106980;27;82089;-53
2021/11/18 08:29:35;;;;;;;;;;;6.40;72.40;;;;;;5104163;27;83017;-55
2021/11/18 08:32:01;;;;;;;;;;;6.40;72.30;;;;;;5104061;27;83434;-55
2021/11/18 08:34:27;;;;;;;;;;;6.40;72.30;;;;;;5102805;27;84482;-54
2021/11/18 08:36:53;;;;;;;;;;;6.40;72.50;;;;;;5108451;27;83692;-55
2021/11/18 08:39:22;;;;;;;;;;;6.40;72.40;;;;;;5105478;27;82640;-52
2021/11/18 08:41:49;;;;;;;;;;;6.40;72.50;;;;;;5105217;27;84640;-53
2021/11/18 08:44:18;;;;;;;;;;;6.40;72.50;;;;;;5104167;27;82097;-53
2021/11/18 08:46:48;;;;;;;;;;;6.40;72.50;;;;;;5108000;27;82951;-54
2021/11/18 08:49:14;;;;;;;;;;;6.40;72.50;;;;;;5106296;27;84398;-51
2021/11/18 08:51:40;;;;;;;;;;;6.40;72.60;;;;;;5104261;27;82266;-52
2021/11/18 08:54:07;;;;;;;;;;;6.30;72.60;;;;;;5103005;27;86036;-52
2021/11/18 08:56:33;;;;;;;;;;;6.40;72.60;;;;;;5105360;27;82922;-51
2021/11/18 08:59:00;;;;;;;;;;;6.40;72.60;;;;;;5104650;27;83031;-53
2021/11/18 09:01:30;;;;;;;;;;;6.40;72.50;;;;;;5106274;27;83755;-52
2021/11/18 09:03:57;;;;;;;;;;;6.30;72.50;;;;;;5103117;27;82710;-53
2021/11/18 09:06:23;;;;;;;;;;;6.30;72.60;;;;;;5107056;27;82099;-55
2021/11/18 09:08:49;;;;;;;;;;;6.40;72.70;;;;;;5105516;27;83362;-54
2021/11/18 09:11:15;;;;;;;;;;;6.30;72.50;;;;;;5109914;27;81327;-54
2021/11/18 09:13:42;;;;;;;;;;;6.30;72.80;;;;;;5106325;27;84820;-53
2021/11/18 09:16:08;;;;;;;;;;;6.30;72.90;;;;;;5105970;27;82135;-54
2021/11/18 09:18:34;;;;;;;;;;;6.30;72.70;;;;;;5105016;27;83308;-54
2021/11/18 09:21:00;;;;;;;;;;;6.30;72.70;;;;;;5105230;27;82674;-54
2021/11/18 09:23:31;;;;;;;;;;;6.30;72.80;;;;;;5106485;27;82113;-54
2021/11/18 09:25:57;;;;;;;;;;;6.30;72.80;;;;;;5106415;27;83188;-55
2021/11/18 09:28:24;;;;;;;;;;;6.30;72.80;;;;;;5106899;27;83077;-54
2021/11/18 09:30:53;;;;;;;;;;;6.30;72.80;;;;;;5106798;27;82110;-53
2021/11/18 09:33:19;;;;;;;;;;;6.30;72.80;;;;;;5105549;27;83936;-54
2021/11/18 09:35:46;;;;;;;;;;;6.30;72.90;;;;;;5105194;27;82112;-54
2021/11/18 09:38:12;;;;;;;;;;;6.30;72.90;;;;;;5105999;27;82078;-50
2021/11/18 09:40:43;;;;;;;;;;;6.30;73.00;;;;;;5105655;27;82633;-55
2021/11/18 09:43:24;;;;;;;;;;;6.30;72.80;;;;;;5105368;27;83064;-55
2021/11/18 09:45:56;;;;;;;;;;;6.30;72.80;;;;;;5106454;27;82888;-55
2021/11/18 09:48:28;;;;;;;;;;;6.30;72.90;;;;;;5104373;27;83534;-53
2021/11/18 09:51:19;;;;;;;;;;;6.30;73.10;;;;;;5104113;27;82100;-51
2021/11/18 09:53:53;;;;;;;;;;;6.30;72.90;;;;;;5064010;27;84004;-55
2021/11/18 09:56:40;;;;;;;;;;;6.30;72.90;;;;;;5106774;27;82983;-53
2021/11/18 09:59:24;;;;;;;;;;;6.20;73.00;;;;;;5053016;27;84008;-55
2021/11/18 10:01:52;;;;;;;;;;;6.20;72.90;;;;;;5106949;27;82399;-57
2021/11/18 10:04:17;;;;;;;;;;;6.20;73.10;;;;;;5102142;27;82149;-52
2021/11/18 10:06:44;;;;;;;;;;;6.20;73.10;;;;;;5103393;27;82426;-55
2021/11/18 10:09:12;;;;;;;;;;;6.20;73.00;;;;;;5102676;27;84533;-54
2021/11/18 10:11:44;;;;;;;;;;;6.20;73.10;;;;;;5105791;27;82155;-55
2021/11/18 10:14:24;;;;;;;;;;;6.20;73.10;;;;;;5104569;27;84177;-52
2021/11/18 10:16:57;;;;;;;;;;;6.20;73.10;;;;;;5109211;27;82750;-55
2021/11/18 10:19:27;;;;;;;;;;;6.20;73.10;;;;;;5103616;27;82372;-54
2021/11/18 10:21:55;;;;;;;;;;;6.20;73.10;;;;;;5105674;27;83397;-54
2021/11/18 10:24:22;;;;;;;;;;;6.30;73.20;;;;;;5104330;27;82136;-54
2021/11/18 10:26:50;;;;;;;;;;;6.30;73.20;;;;;;5103888;27;82626;-54
2021/11/18 10:29:27;;;;;;;;;;;6.30;73.20;;;;;;5102810;27;83144;-54
2021/11/18 10:31:57;;;;;;;;;;;6.30;73.20;;;;;;5102130;27;83088;-53
2021/11/18 10:34:29;;;;;;;;;;;6.30;73.20;;;;;;5101512;27;83948;-54
2021/11/18 10:37:01;;;;;;;;;;;6.20;73.20;;;;;;5102099;27;83096;-55
2021/11/18 10:39:32;;;;;;;;;;;6.30;73.30;;;;;;5104828;27;82012;-52
2021/11/18 10:42:00;;;;;;;;;;;6.30;73.10;;;;;;5101598;27;82161;-54
2021/11/18 10:44:30;;;;;;;;;;;6.30;73.20;;;;;;5103590;27;82850;-54
2021/11/18 10:47:01;;;;;;;;;;;6.30;73.10;;;;;;5101846;27;83484;-52
2021/11/18 10:49:50;;;;;;;;;;;6.30;73.30;;;;;;5105803;27;82549;-55
2021/11/18 10:52:34;;;;;;;;;;;6.30;73.20;;;;;;5087981;27;81299;-54
2021/11/18 10:55:00;;;;;;;;;;;6.30;73.40;;;;;;5103924;27;82593;-54
2021/11/18 10:57:28;;;;;;;;;;;6.30;73.40;;;;;;5105233;27;82682;-55
2021/11/18 11:00:09;;;;;;;;;;;6.20;73.30;;;;;;5101837;27;83116;-53
2021/11/18 11:02:35;;;;;;;;;;;6.30;73.50;;;;;;5105166;27;82884;-54
2021/11/18 11:05:03;;;;;;;;;;;6.20;73.30;;;;;;5102936;27;82136;-54
2021/11/18 11:07:36;;;;;;;;;;;6.20;73.60;;;;;;5102258;27;82980;-55
2021/11/18 11:10:03;;;;;;;;;;;6.20;73.40;;;;;;5104150;27;83055;-54
2021/11/18 11:12:31;;;;;;;;;;;6.30;73.60;;;;;;5102622;27;82126;-52
2021/11/18 11:15:05;;;;;;;;;;;6.30;73.50;;;;;;5101323;27;82113;-51
2021/11/18 11:17:31;;;;;;;;;;;6.30;73.60;;;;;;5104194;27;83540;-54
2021/11/18 11:20:03;;;;;;;;;;;6.30;73.60;;;;;;5103074;27;82083;-55
2021/11/18 11:22:50;;;;;;;;;;;6.30;73.60;;;;;;5100579;27;82821;-51
2021/11/18 11:25:32;;;;;;;;;;;6.30;73.50;;;;;;5102709;27;85151;-53
2021/11/18 11:28:02;;;;;;;;;;;6.30;73.50;;;;;;5102463;27;82857;-55
2021/11/18 11:30:49;;;;;;;;;;;6.30;73.70;;;;;;5102409;27;83236;-54
2021/11/18 11:33:15;;;;;;;;;;;6.30;73.70;;;;;;5107782;27;82089;-52
2021/11/18 11:35:59;;;;;;;;;;;6.30;73.60;;;;;;5106789;27;83766;-52
2021/11/18 11:38:34;;;;;;;;;;;6.30;73.50;;;;;;5106924;27;83406;-55
2021/11/18 11:40:59;;;;;;;;;;;6.30;73.70;;;;;;5105792;27;82110;-53
2021/11/18 11:43:45;;;;;;;;;;;6.30;73.50;;;;;;5107872;27;83039;-53
2021/11/18 11:46:14;;;;;;;;;;;6.40;73.50;;;;;;5107248;27;83575;-53
2021/11/18 11:48:48;;;;;;;;;;;6.30;73.40;;;;;;5107223;27;82115;-54
2021/11/18 11:51:19;;;;;;;;;;;6.40;73.20;;;;;;5105916;27;85957;-55
2021/11/18 11:53:54;;;;;;;;;;;6.50;73.20;;;;;;5107091;27;82058;-55
2021/11/18 11:56:19;;;;;;;;;;;6.40;73.30;;;;;;5108727;27;82646;-56
2021/11/18 11:58:49;;;;;;;;;;;6.40;73.50;;;;;;5108482;27;85058;-55
2021/11/18 12:01:33;;;;;;;;;;;6.40;73.60;;;;;;5108729;27;82263;-53
2021/11/18 12:04:01;;;;;;;;;;;6.40;73.50;;;;;;5104034;27;82302;-55
2021/11/18 12:06:32;;;;;;;;;;;6.40;73.50;;;;;;5106794;27;82813;-53
2021/11/18 12:09:02;;;;;;;;;;;6.40;73.50;;;;;;5108361;27;81333;-56
2021/11/18 12:11:37;;;;;;;;;;;6.40;73.50;;;;;;5110868;27;85762;-56
2021/11/18 12:14:12;;;;;;;;;;;6.40;73.50;;;;;;5103760;27;83664;-54
2021/11/18 12:16:52;;;;;;;;;;;6.40;73.50;;;;;;5103339;27;83714;-54
2021/11/18 12:19:22;;;;;;;;;;;6.40;73.50;;;;;;5104565;27;84107;-50
2021/11/18 12:21:47;;;;;;;;;;;6.40;73.70;;;;;;5107575;27;82124;-55
2021/11/18 12:24:21;;;;;;;;;;;6.40;73.70;;;;;;5108311;27;82743;-54
2021/11/18 12:27:06;;;;;;;;;;;6.40;73.60;;;;;;5105860;27;84643;-54
2021/11/18 12:29:43;;;;;;;;;;;6.40;73.70;;;;;;5054456;27;82236;-54
2021/11/18 12:32:08;;;;;;;;;;;6.40;73.70;;;;;;5110038;27;83692;-55
2021/11/18 12:34:52;;;;;;;;;;;6.40;73.70;;;;;;5107112;27;81794;-53
2021/11/18 12:37:24;;;;;;;;;;;6.40;73.70;;;;;;5105560;27;83253;-55
2021/11/18 12:40:13;;;;;;;;;;;6.40;73.70;;;;;;5105089;27;84518;-52
2021/11/18 12:42:57;;;;;;;;;;;6.40;73.60;;;;;;5104067;27;83892;-54
2021/11/18 12:45:43;;;;;;;;;;;6.40;73.60;;;;;;5105489;27;83407;-54
2021/11/18 12:48:12;;;;;;;;;;;6.50;73.60;;;;;;5105306;27;84536;-54
2021/11/18 12:50:49;;;;;;;;;;;6.40;73.60;;;;;;5103179;27;82816;-54
2021/11/18 12:53:17;;;;;;;;;;;6.40;73.70;;;;;;5106878;27;83510;-53
2021/11/18 12:55:57;;;;;;;;;;;6.40;73.70;;;;;;5109013;27;84676;-56
2021/11/18 12:58:22;;;;;;;;;;;6.40;73.50;;;;;;5105346;27;85230;-54
2021/11/18 13:00:49;;;;;;;;;;;6.50;73.80;;;;;;5103950;27;83583;-52
2021/11/18 13:03:35;;;;;;;;;;;6.40;73.60;;;;;;5106800;27;83029;-53
2021/11/18 13:06:02;;;;;;;;;;;6.60;73.50;;;;;;5104555;27;83645;-52
2021/11/18 13:08:30;;;;;;;;;;;6.50;73.50;;;;;;5104416;27;85360;-54
2021/11/18 13:11:16;;;;;;;;;;;6.50;73.50;;;;;;5105013;27;82704;-54
2021/11/18 13:13:42;;;;;;;;;;;6.50;73.50;;;;;;5103148;27;82649;-52
2021/11/18 13:16:28;;;;;;;;;;;6.50;73.50;;;;;;5103457;27;84957;-54
2021/11/18 13:18:57;;;;;;;;;;;6.60;73.40;;;;;;5089408;27;84380;-55
2021/11/18 13:21:42;;;;;;;;;;;6.50;73.40;;;;;;5107299;27;83404;-54
2021/11/18 13:24:08;;;;;;;;;;;6.50;73.50;;;;;;5102919;27;82148;-53
2021/11/18 13:26:35;;;;;;;;;;;6.50;73.80;;;;;;5104541;27;82560;-55
2021/11/18 13:29:10;;;;;;;;;;;6.50;73.60;;;;;;5102908;27;82192;-54
2021/11/18 13:31:55;;;;;;;;;;;6.40;73.60;;;;;;5105708;27;82099;-53
2021/11/18 13:34:21;;;;;;;;;;;6.40;73.70;;;;;;5086721;27;83096;-55
2021/11/18 13:36:57;;;;;;;;;;;6.50;73.80;;;;;;5106543;27;84229;-53
2021/11/18 13:39:41;;;;;;;;;;;6.50;73.60;;;;;;5106831;27;82107;-55
2021/11/18 13:42:25;;;;;;;;;;;6.50;73.60;;;;;;5105851;27;82285;-52
2021/11/18 13:44:54;;;;;;;;;;;6.50;73.70;;;;;;5106748;27;82090;-56
2021/11/18 13:47:25;;;;;;;;;;;6.50;73.80;;;;;;5103008;27;84256;-54
2021/11/18 13:49:52;;;;;;;;;;;6.50;73.80;;;;;;5102762;27;83703;-54
2021/11/18 13:52:19;;;;;;;;;;;6.50;73.70;;;;;;5103395;27;81394;-55
2021/11/18 13:54:57;;;;;;;;;;;6.50;73.60;;;;;;5102947;27;83783;-54
2021/11/18 13:57:32;;;;;;;;;;;6.40;73.70;;;;;;5106611;27;82814;-53
2021/11/18 14:00:02;;;;;;;;;;;6.50;73.50;;;;;;5101473;27;83068;-52
2021/11/18 14:02:32;;;;;;;;;;;6.50;74.00;;;;;;5103297;27;83784;-54
2021/11/18 14:05:00;;;;;;;;;;;6.50;73.60;;;;;;5107047;27;83955;-53
2021/11/18 14:07:28;;;;;;;;;;;6.50;73.70;;;;;;5102171;27;83714;-55
2021/11/18 14:09:57;;;;;;;;;;;6.50;73.70;;;;;;5105860;27;82834;-54
2021/11/18 14:12:30;;;;;;;;;;;6.50;73.70;;;;;;5103182;27;82132;-55
2021/11/18 14:15:14;;;;;;;;;;;6.50;73.80;;;;;;5101697;27;83894;-54
2021/11/18 14:18:12;;;;;;;;;;;6.50;73.80;;;;;;5103253;27;82538;-53
2021/11/18 14:20:40;;;;;;;;;;;6.50;73.80;;;;;;5105950;27;82190;-54
2021/11/18 14:23:17;;;;;;;;;;;6.50;73.50;;;;;;5103438;27;82676;-54
2021/11/18 14:25:43;;;;;;;;;;;6.50;73.80;;;;;;5102266;27;84970;-54
2021/11/18 14:28:13;;;;;;;;;;;6.50;74.00;;;;;;5106281;27;82231;-52
2021/11/18 14:30:44;;;;;;;;;;;6.50;73.80;;;;;;5104359;27;83238;-54
2021/11/18 14:33:33;;;;;;;;;;;6.40;74.00;;;;;;5103601;27;82245;-52
2021/11/18 14:36:10;;;;;;;;;;;6.50;74.00;;;;;;5101697;27;83371;-53
2021/11/18 14:38:37;;;;;;;;;;;6.40;74.10;;;;;;5106176;27;82070;-54
2021/11/18 14:41:29;;;;;;;;;;;6.40;74.00;;;;;;5104123;27;82083;-55